createdAt,value
2022-11-13T00:00:15.317Z,7.63
2022-11-13T00:03:00.791Z,10.30
2022-11-13T00:05:45.853Z,7.67
2022-11-13T00:08:31.740Z,9.23
2022-11-13T00:11:19.312Z,11.70
2022-11-13T00:14:05.026Z,8.50
2022-11-13T00:16:50.343Z,8.80
2022-11-13T00:19:35.794Z,7.50
2022-11-13T00:22:21.239Z,8.63
2022-11-13T00:25:06.732Z,26.57
2022-11-13T00:27:51.999Z,9.90
2022-11-13T00:30:37.426Z,8.13
2022-11-13T00:33:45.267Z,13.73
2022-11-13T00:36:28.414Z,8.70
2022-11-13T00:39:13.360Z,8.13
2022-11-13T00:41:58.768Z,9.87
2022-11-13T00:44:44.142Z,6.97
2022-11-13T00:47:30.085Z,9.10
2022-11-13T00:50:15.353Z,9.07
2022-11-13T00:53:01.091Z,10.33
2022-11-13T00:55:46.405Z,10.03
2022-11-13T00:58:31.935Z,9.03
2022-11-13T01:01:19.443Z,7.80
2022-11-13T01:04:04.712Z,6.80
2022-11-13T01:06:49.900Z,9.67
2022-11-13T01:09:35.265Z,9.23
2022-11-13T01:12:20.316Z,9.60
2022-11-13T01:15:05.975Z,8.47
2022-11-13T01:17:51.749Z,10.97
2022-11-13T01:20:37.530Z,11.80
2022-11-13T01:23:22.646Z,9.20
2022-11-13T01:26:11.686Z,15.27
2022-11-13T01:28:59.392Z,7.90
2022-11-13T01:31:44.840Z,12.50
2022-11-13T01:34:30.189Z,7.20
2022-11-13T01:37:15.604Z,12.03
2022-11-13T01:40:00.810Z,8.80
2022-11-13T01:42:46.477Z,11.20
2022-11-13T01:45:59.381Z,10.17
2022-11-13T01:49:14.001Z,11.50
2022-11-13T01:52:06.949Z,8.60
2022-11-13T01:55:00.350Z,8.77
2022-11-13T01:57:45.809Z,11.43
2022-11-13T02:00:31.215Z,10.00
2022-11-13T02:03:16.989Z,10.40
2022-11-13T02:06:02.639Z,9.03
2022-11-13T02:08:49.514Z,8.07
2022-11-13T02:11:34.755Z,9.20
2022-11-13T02:14:23.151Z,7.90
2022-11-13T02:17:11.159Z,6.87
2022-11-13T02:20:00.628Z,8.60
2022-11-13T02:23:05.731Z,8.67
2022-11-13T02:25:53.393Z,9.10
2022-11-13T02:28:39.042Z,11.70
2022-11-13T02:31:24.057Z,12.87
2022-11-13T02:34:10.018Z,11.73
2022-11-13T02:36:55.858Z,12.43
2022-11-13T02:39:41.460Z,9.60
2022-11-13T02:42:26.763Z,7.43
2022-11-13T02:45:12.344Z,10.03
2022-11-13T02:48:00.487Z,9.23
2022-11-13T02:50:46.109Z,9.10
2022-11-13T02:53:31.374Z,11.57
2022-11-13T02:56:17.166Z,9.50
2022-11-13T02:59:02.391Z,11.60
2022-11-13T03:01:48.280Z,11.10
2022-11-13T03:04:57.218Z,16.10
2022-11-13T03:07:38.328Z,13.40
2022-11-13T03:10:23.640Z,18.90
2022-11-13T03:13:09.214Z,14.73
2022-11-13T03:15:54.306Z,14.70
2022-11-13T03:18:40.431Z,16.03
2022-11-13T03:21:25.344Z,16.70
2022-11-13T03:24:10.605Z,16.47
2022-11-13T03:26:55.960Z,13.27
2022-11-13T03:29:41.416Z,16.20
2022-11-13T03:32:26.622Z,15.63
2022-11-13T03:35:11.539Z,15.20
2022-11-13T03:37:57.089Z,13.30
2022-11-13T03:40:43.075Z,12.67
2022-11-13T03:43:28.425Z,15.97
2022-11-13T03:46:13.814Z,12.83
2022-11-13T03:48:58.919Z,14.87
2022-11-13T03:51:44.218Z,12.03
2022-11-13T03:54:29.489Z,12.63
2022-11-13T03:57:15.557Z,19.50
2022-11-13T04:00:00.562Z,17.40
2022-11-13T04:02:46.160Z,15.03
2022-11-13T04:05:31.516Z,13.23
2022-11-13T04:08:17.401Z,17.03
2022-11-13T04:11:10.541Z,14.97
2022-11-13T04:13:56.348Z,10.17
2022-11-13T04:16:41.473Z,12.67
2022-11-13T04:19:26.822Z,15.83
2022-11-13T04:22:12.482Z,15.13
2022-11-13T04:24:58.083Z,10.60
2022-11-13T04:27:43.790Z,15.90
2022-11-13T04:30:29.121Z,12.70
2022-11-13T04:33:14.306Z,12.50
2022-11-13T04:35:59.433Z,12.20
2022-11-13T04:38:44.744Z,13.73
2022-11-13T04:41:52.602Z,14.37
2022-11-13T04:44:40.846Z,16.00
2022-11-13T04:47:26.249Z,15.53
2022-11-13T04:50:12.590Z,12.20
2022-11-13T04:52:58.218Z,11.77
2022-11-13T04:55:45.071Z,15.60
2022-11-13T04:58:30.778Z,15.47
2022-11-13T05:01:16.288Z,14.40
2022-11-13T05:04:01.718Z,14.47
2022-11-13T05:06:46.847Z,18.37
2022-11-13T05:09:32.169Z,16.03
2022-11-13T05:12:17.409Z,16.47
2022-11-13T05:15:03.284Z,17.53
2022-11-13T05:17:49.328Z,23.80
2022-11-13T05:20:35.082Z,27.33
2022-11-13T05:23:20.401Z,21.40
2022-11-13T05:26:11.741Z,29.70
2022-11-13T05:28:59.113Z,18.13
2022-11-13T05:31:44.632Z,15.60
2022-11-13T05:34:29.489Z,18.90
2022-11-13T05:37:14.886Z,14.33
2022-11-13T05:39:59.865Z,14.90
2022-11-13T05:42:45.166Z,19.03
2022-11-13T05:45:30.634Z,18.50
2022-11-13T05:48:15.797Z,16.83
2022-11-13T05:51:06.962Z,20.90
2022-11-13T05:53:53.514Z,17.30
2022-11-13T05:56:40.769Z,15.27
2022-11-13T05:59:26.234Z,17.37
2022-11-13T06:02:11.371Z,17.10
2022-11-13T06:04:56.756Z,17.10
2022-11-13T06:07:41.923Z,14.00
2022-11-13T06:10:27.454Z,18.70
2022-11-13T06:13:13.156Z,17.07
2022-11-13T06:16:03.047Z,15.47
2022-11-13T06:18:49.494Z,16.23
2022-11-13T06:21:37.942Z,16.33
2022-11-13T06:24:23.160Z,18.20
2022-11-13T06:27:08.545Z,21.23
2022-11-13T06:29:53.817Z,16.30
2022-11-13T06:32:39.573Z,20.30
2022-11-13T06:35:24.760Z,18.33
2022-11-13T06:38:10.208Z,16.03
2022-11-13T06:40:56.925Z,15.87
2022-11-13T06:43:42.698Z,19.17
2022-11-13T06:46:29.936Z,15.53
2022-11-13T06:49:15.492Z,14.20
2022-11-13T06:52:00.902Z,21.50
2022-11-13T06:54:46.362Z,16.63
2022-11-13T06:57:31.497Z,17.97
2022-11-13T07:00:17.578Z,15.60
2022-11-13T07:03:02.987Z,14.50
2022-11-13T07:05:48.239Z,14.27
2022-11-13T07:08:34.328Z,18.53
2022-11-13T07:11:22.601Z,17.93
2022-11-13T07:14:12.075Z,24.00
2022-11-13T07:17:09.224Z,34.30
2022-11-13T07:19:55.026Z,24.30
2022-11-13T07:22:40.220Z,20.37
2022-11-13T07:25:27.011Z,19.43
2022-11-13T07:28:12.320Z,14.97
2022-11-13T07:30:59.095Z,15.47
2022-11-13T07:33:44.569Z,14.97
2022-11-13T07:36:29.814Z,19.50
2022-11-13T07:39:15.077Z,15.77
2022-11-13T07:42:00.378Z,23.93
2022-11-13T07:44:54.615Z,16.83
2022-11-13T07:47:41.296Z,21.07
2022-11-13T07:50:32.001Z,18.70
2022-11-13T07:53:18.535Z,14.57
2022-11-13T07:56:04.246Z,11.20
2022-11-13T07:58:49.490Z,10.50
2022-11-13T08:01:34.433Z,12.90
2022-11-13T08:04:19.670Z,13.53
2022-11-13T08:07:04.932Z,12.80
2022-11-13T08:09:50.279Z,14.30
2022-11-13T08:12:35.892Z,14.17
2022-11-13T08:15:21.137Z,11.33
2022-11-13T08:18:07.214Z,10.60
2022-11-13T08:20:52.285Z,9.00
2022-11-13T08:23:37.612Z,10.67
2022-11-13T08:26:22.904Z,14.47
2022-11-13T08:29:08.116Z,12.50
2022-11-13T08:31:53.674Z,10.40
2022-11-13T08:34:38.592Z,10.43
2022-11-13T08:37:23.988Z,11.90
2022-11-13T08:40:09.723Z,10.80
2022-11-13T08:43:04.645Z,12.03
2022-11-13T08:45:49.871Z,10.07
2022-11-13T08:48:35.557Z,10.67
2022-11-13T08:51:21.017Z,12.10
2022-11-13T08:54:06.846Z,9.97
2022-11-13T08:56:56.235Z,11.30
2022-11-13T08:59:42.862Z,11.43
2022-11-13T09:02:28.235Z,11.00
2022-11-13T09:05:14.106Z,23.07
2022-11-13T09:08:01.158Z,20.20
2022-11-13T09:10:46.288Z,14.10
2022-11-13T09:13:32.928Z,10.60
2022-11-13T09:16:18.192Z,13.03
2022-11-13T09:19:04.088Z,11.60
2022-11-13T09:21:49.031Z,12.77
2022-11-13T09:24:34.916Z,17.43
2022-11-13T09:27:20.191Z,11.60
2022-11-13T09:30:05.762Z,9.67
2022-11-13T09:32:59.039Z,11.23
2022-11-13T09:35:44.723Z,12.13
2022-11-13T09:38:31.982Z,11.60
2022-11-13T09:41:21.604Z,9.97
2022-11-13T09:44:15.876Z,10.27
2022-11-13T09:47:20.467Z,10.60
2022-11-13T09:50:19.312Z,12.57
2022-11-13T09:53:05.005Z,11.63
2022-11-13T09:56:33.260Z,13.27
2022-11-13T09:59:45.326Z,11.43
2022-11-13T10:02:49.089Z,12.20
2022-11-13T10:05:36.965Z,11.73
2022-11-13T10:08:30.590Z,12.80
2022-11-13T10:11:36.671Z,12.63
2022-11-13T10:14:29.081Z,11.40
2022-11-13T10:17:21.486Z,12.50
2022-11-13T10:20:19.226Z,12.77
2022-11-13T10:23:14.938Z,10.50
2022-11-13T10:26:14.838Z,16.53
2022-11-13T10:29:20.249Z,11.53
2022-11-13T10:32:26.779Z,12.37
2022-11-13T10:35:31.870Z,11.40
2022-11-13T10:38:49.964Z,12.47
2022-11-13T10:41:48.347Z,13.00
2022-11-13T10:44:38.153Z,12.17
2022-11-13T10:47:56.943Z,13.27
2022-11-13T10:50:32.531Z,14.47
2022-11-13T10:53:19.783Z,12.50
2022-11-13T10:56:14.488Z,12.80
2022-11-13T10:59:10.421Z,14.80
2022-11-13T11:01:55.801Z,12.80
2022-11-13T11:04:40.889Z,15.37
2022-11-13T11:07:26.546Z,16.83
2022-11-13T11:10:34.018Z,15.10
2022-11-13T11:13:23.879Z,13.37
2022-11-13T11:16:14.628Z,16.10
2022-11-13T11:19:09.246Z,14.27
2022-11-13T11:22:07.147Z,12.60
2022-11-13T11:25:02.494Z,14.40
2022-11-13T11:28:14.582Z,16.73
2022-11-13T11:31:32.530Z,15.10
2022-11-13T11:35:08.084Z,17.63
2022-11-13T11:38:02.906Z,17.00
2022-11-13T11:40:55.671Z,18.93
2022-11-13T11:43:45.761Z,14.53
2022-11-13T11:46:31.010Z,16.40
2022-11-13T11:49:16.761Z,14.83
2022-11-13T11:52:34.177Z,16.30
2022-11-13T11:55:50.804Z,16.00
2022-11-13T11:58:38.525Z,14.57
2022-11-13T12:01:39.855Z,11.43
2022-11-13T12:04:52.576Z,13.07
2022-11-13T12:07:57.795Z,12.53
2022-11-13T12:10:57.265Z,12.90
2022-11-13T12:14:04.011Z,13.83
2022-11-13T12:17:16.708Z,13.10
2022-11-13T12:20:26.138Z,11.20
2022-11-13T12:23:19.923Z,12.17
2022-11-13T12:26:26.177Z,10.20
2022-11-13T12:29:38.827Z,12.83
2022-11-13T12:32:46.591Z,11.80
2022-11-13T12:35:32.106Z,13.43
2022-11-13T12:38:57.054Z,9.40
2022-11-13T12:42:14.011Z,11.53
2022-11-13T12:45:50.825Z,12.00
2022-11-13T12:48:38.641Z,10.77
2022-11-13T12:51:23.916Z,9.87
2022-11-13T12:54:10.546Z,9.73
2022-11-13T12:57:13.900Z,10.80
2022-11-13T13:00:20.290Z,11.67
2022-11-13T13:03:43.682Z,9.83
2022-11-13T13:06:45.833Z,11.77
2022-11-13T13:09:37.137Z,11.20
2022-11-13T13:12:49.462Z,9.93
2022-11-13T13:15:39.809Z,14.40
2022-11-13T13:18:31.649Z,11.27
2022-11-13T13:21:19.250Z,13.47
2022-11-13T13:24:24.779Z,14.03
2022-11-13T13:27:25.279Z,16.90
2022-11-13T13:30:20.326Z,14.10
2022-11-13T13:33:21.050Z,12.50
2022-11-13T13:36:09.113Z,12.10
2022-11-13T13:39:11.405Z,16.83
2022-11-13T13:42:04.376Z,13.40
2022-11-13T13:45:23.832Z,13.60
2022-11-13T13:48:13.642Z,13.13
2022-11-13T13:51:00.864Z,14.87
2022-11-13T13:53:48.430Z,14.10
2022-11-13T13:56:39.715Z,17.10
2022-11-13T13:59:33.191Z,14.50
2022-11-13T14:02:22.932Z,13.93
2022-11-13T14:05:23.550Z,15.10
2022-11-13T14:08:26.328Z,15.57
2022-11-13T14:11:30.774Z,17.90
2022-11-13T14:14:19.229Z,16.30
2022-11-13T14:17:04.226Z,16.87
2022-11-13T14:19:52.269Z,14.67
2022-11-13T14:22:38.681Z,15.80
2022-11-13T14:25:28.555Z,14.73
2022-11-13T14:28:19.481Z,19.20
2022-11-13T14:31:09.783Z,24.87
2022-11-13T14:33:55.746Z,21.10
2022-11-13T14:36:41.057Z,26.63
2022-11-13T14:39:32.145Z,25.30
2022-11-13T14:42:36.855Z,28.57
2022-11-13T14:45:25.094Z,25.43
2022-11-13T14:48:22.963Z,27.03
2022-11-13T14:51:23.426Z,33.27
2022-11-13T14:54:53.080Z,41.50
2022-11-13T14:57:47.659Z,33.80
2022-11-13T15:00:37.871Z,36.37
2022-11-13T15:03:23.490Z,33.90
2022-11-13T15:06:15.130Z,39.63
2022-11-13T15:09:01.719Z,46.10
2022-11-13T15:11:46.929Z,39.13
2022-11-13T15:14:32.994Z,36.27
2022-11-13T15:17:21.175Z,40.77
2022-11-13T15:23:16.739Z,34.17
2022-11-13T15:32:21.849Z,34.27
2022-11-13T15:35:13.684Z,34.00
2022-11-13T15:37:59.048Z,34.17
2022-11-13T15:40:44.287Z,36.57
2022-11-13T15:43:29.801Z,32.53
2022-11-13T15:46:18.331Z,29.90
2022-11-13T15:49:04.277Z,34.40
2022-11-13T15:51:50.187Z,31.17
2022-11-13T15:54:38.273Z,30.47
2022-11-13T15:57:29.209Z,32.50
2022-11-13T16:00:16.305Z,28.50
2022-11-13T16:03:04.302Z,29.20
2022-11-13T16:05:50.731Z,27.10
2022-11-13T16:08:36.569Z,28.50
2022-11-13T16:11:21.889Z,26.60
2022-11-13T16:14:07.860Z,27.53
2022-11-13T16:16:53.491Z,25.60
2022-11-13T16:19:42.047Z,29.00
2022-11-13T16:22:27.483Z,31.30
2022-11-13T16:25:15.566Z,19.30
2022-11-13T16:28:00.686Z,17.93
2022-11-13T16:30:47.135Z,19.83
2022-11-13T16:33:32.369Z,25.23
2022-11-13T16:36:20.200Z,24.77
2022-11-13T16:39:06.355Z,19.67
2022-11-13T16:41:51.687Z,18.83
2022-11-13T16:44:37.035Z,19.50
2022-11-13T16:47:24.859Z,24.03
2022-11-13T16:50:14.029Z,19.83
2022-11-13T16:52:59.429Z,21.27
2022-11-13T16:55:45.104Z,17.10
2022-11-13T16:58:30.446Z,17.93
2022-11-13T17:01:18.355Z,24.60
2022-11-13T17:04:05.565Z,23.00
2022-11-13T17:06:55.340Z,20.90
2022-11-13T17:09:43.449Z,20.20
2022-11-13T17:12:28.480Z,24.00
2022-11-13T17:15:14.317Z,27.40
2022-11-13T17:17:59.908Z,19.63
2022-11-13T17:20:45.471Z,25.93
2022-11-13T17:23:31.086Z,23.40
2022-11-13T17:26:16.498Z,27.23
2022-11-13T17:29:05.125Z,23.77
2022-11-13T17:31:50.966Z,25.60
2022-11-13T17:34:36.633Z,28.17
2022-11-13T17:37:25.084Z,27.40
2022-11-13T17:40:11.599Z,29.37
2022-11-13T17:42:56.962Z,30.67
2022-11-13T17:45:42.371Z,32.87
2022-11-13T17:48:31.190Z,28.20
2022-11-13T17:51:16.154Z,40.10
2022-11-13T17:54:01.701Z,31.27
2022-11-13T17:56:47.210Z,35.93
2022-11-13T17:59:32.421Z,35.50
2022-11-13T18:02:18.646Z,35.63
2022-11-13T18:05:04.608Z,27.30
2022-11-13T18:07:51.202Z,32.60
2022-11-13T18:10:38.317Z,38.10
2022-11-13T18:13:24.890Z,30.20
2022-11-13T18:16:14.342Z,35.80
2022-11-13T18:19:00.903Z,33.83
2022-11-13T18:21:46.580Z,32.77
2022-11-13T18:24:32.289Z,27.00
2022-11-13T18:27:17.393Z,32.37
2022-11-13T18:30:03.116Z,27.90
2022-11-13T18:32:48.629Z,29.33
2022-11-13T18:35:33.695Z,30.17
2022-11-13T18:38:18.890Z,33.23
2022-11-13T18:41:07.902Z,32.53
2022-11-13T18:43:53.128Z,30.33
2022-11-13T18:46:38.232Z,37.93
2022-11-13T18:49:24.495Z,34.60
2022-11-13T18:52:09.950Z,33.17
2022-11-13T18:54:55.835Z,33.37
2022-11-13T18:57:41.605Z,34.17
2022-11-13T19:00:26.664Z,30.80
2022-11-13T19:03:11.813Z,31.20
2022-11-13T19:05:57.235Z,26.93
2022-11-13T19:08:43.688Z,32.73
2022-11-13T19:11:30.219Z,28.80
2022-11-13T19:14:17.351Z,28.83
2022-11-13T19:17:02.781Z,31.30
2022-11-13T19:19:48.635Z,28.23
2022-11-13T19:22:34.570Z,32.27
2022-11-13T19:25:20.045Z,33.53
2022-11-13T19:28:05.424Z,30.50
2022-11-13T19:30:54.706Z,32.10
2022-11-13T19:33:40.715Z,25.10
2022-11-13T19:36:28.476Z,26.50
2022-11-13T19:39:13.718Z,25.50
2022-11-13T19:41:58.994Z,26.17
2022-11-13T19:44:44.405Z,28.03
2022-11-13T19:47:29.930Z,30.67
2022-11-13T19:50:15.624Z,25.00
2022-11-13T19:53:01.627Z,27.77
2022-11-13T19:55:56.069Z,25.17
2022-11-13T19:58:44.089Z,25.00
2022-11-13T20:01:31.761Z,26.57
2022-11-13T20:04:18.456Z,24.27
2022-11-13T20:07:03.671Z,33.40
2022-11-13T20:09:49.260Z,29.40
2022-11-13T20:12:34.560Z,29.13
2022-11-13T20:15:20.049Z,34.53
2022-11-13T20:18:05.503Z,29.03
2022-11-13T20:20:54.709Z,25.77
2022-11-13T20:23:40.366Z,29.90
2022-11-13T20:26:26.094Z,29.17
2022-11-13T20:29:11.856Z,31.47
2022-11-13T20:31:56.995Z,35.93
2022-11-13T20:34:42.878Z,32.47
2022-11-13T20:37:28.969Z,34.90
2022-11-13T20:40:14.763Z,33.00
2022-11-13T20:42:59.693Z,27.60
2022-11-13T20:45:45.053Z,30.37
2022-11-13T20:48:30.478Z,30.43
2022-11-13T20:51:19.961Z,41.07
2022-11-13T20:54:06.905Z,36.23
2022-11-13T20:56:52.095Z,28.50
2022-11-13T20:59:37.705Z,31.63
2022-11-13T21:02:23.433Z,30.90
2022-11-13T21:05:09.300Z,48.20
2022-11-13T21:07:54.902Z,34.80
2022-11-13T21:10:40.247Z,35.50
2022-11-13T21:13:26.026Z,35.47
2022-11-13T21:16:11.795Z,38.87
2022-11-13T21:18:59.226Z,36.13
2022-11-13T21:21:44.766Z,33.67
2022-11-13T21:24:29.846Z,32.30
2022-11-13T21:27:15.073Z,29.83
2022-11-13T21:30:00.992Z,35.70
2022-11-13T21:32:46.151Z,29.37
2022-11-13T21:35:31.278Z,28.37
2022-11-13T21:38:17.554Z,32.27
2022-11-13T21:41:24.202Z,36.30
2022-11-13T21:44:10.637Z,36.77
2022-11-13T21:46:56.248Z,41.10
2022-11-13T21:49:41.746Z,34.30
2022-11-13T21:52:27.159Z,31.90
2022-11-13T21:55:12.297Z,39.37
2022-11-13T21:57:57.867Z,43.30
2022-11-13T22:00:44.567Z,35.77
2022-11-13T22:03:29.898Z,34.13
2022-11-13T22:06:22.599Z,32.43
2022-11-13T22:09:15.236Z,32.10
2022-11-13T22:12:00.662Z,38.37
2022-11-13T22:14:45.946Z,41.83
2022-11-13T22:17:31.181Z,36.30
2022-11-13T22:20:16.634Z,35.13
2022-11-13T22:23:05.482Z,33.60
2022-11-13T22:25:52.449Z,39.83
2022-11-13T22:28:43.341Z,36.00
2022-11-13T22:31:30.358Z,39.47
2022-11-13T22:34:16.181Z,45.13
2022-11-13T22:37:01.109Z,37.83
2022-11-13T22:39:46.351Z,40.80
2022-11-13T22:42:31.708Z,35.73
2022-11-13T22:45:23.733Z,37.10
2022-11-13T22:48:10.808Z,40.90
2022-11-13T22:50:56.797Z,35.50
2022-11-13T22:53:43.515Z,40.90
2022-11-13T22:56:30.686Z,40.73
2022-11-13T22:59:15.704Z,40.23
2022-11-13T23:02:00.993Z,39.10
2022-11-13T23:04:46.015Z,43.37
2022-11-13T23:07:31.816Z,42.13
2022-11-13T23:10:17.952Z,39.67
2022-11-13T23:13:02.849Z,36.17
2022-11-13T23:15:48.325Z,37.70
2022-11-13T23:18:33.794Z,37.13
2022-11-13T23:21:19.088Z,36.37
2022-11-13T23:26:50.750Z,38.53
2022-11-13T23:29:35.732Z,40.97
2022-11-13T23:32:21.209Z,38.30
2022-11-13T23:35:06.666Z,37.60
2022-11-13T23:37:52.129Z,35.27
2022-11-13T23:40:37.394Z,34.43
2022-11-13T23:43:36.405Z,30.67
2022-11-13T23:46:30.059Z,37.77
2022-11-13T23:49:15.268Z,45.00
2022-11-13T23:52:00.630Z,39.70
2022-11-13T23:54:46.250Z,35.53
2022-11-13T23:57:31.515Z,42.50
